createdAt,value
2023-05-19T00:02:09.238Z,100833.84
2023-05-19T00:04:36.270Z,100838.00
2023-05-19T00:07:03.356Z,100834.78
2023-05-19T00:09:30.097Z,100839.38
2023-05-19T00:11:56.830Z,100835.94
2023-05-19T00:14:23.527Z,100843.47
2023-05-19T00:16:50.384Z,100847.28
2023-05-19T00:19:16.994Z,100834.31
2023-05-19T00:21:43.850Z,100835.97
2023-05-19T00:24:10.289Z,100838.09
2023-05-19T00:26:37.166Z,100830.63
2023-05-19T00:29:03.683Z,100826.53
2023-05-19T00:31:31.733Z,100829.66
2023-05-19T00:33:58.285Z,100833.78
2023-05-19T00:36:24.868Z,100837.91
2023-05-19T00:38:51.904Z,100834.97
2023-05-19T00:41:18.558Z,100828.56
2023-05-19T00:43:45.131Z,100835.44
2023-05-19T00:46:11.731Z,100833.16
2023-05-19T00:48:38.224Z,100824.81
2023-05-19T00:51:06.476Z,100832.84
2023-05-19T00:53:34.166Z,100832.38
2023-05-19T00:56:01.755Z,100834.50
2023-05-19T00:58:29.309Z,100835.66
2023-05-19T01:01:04.105Z,100825.00
2023-05-19T01:03:32.230Z,100835.00
2023-05-19T01:06:01.732Z,100827.63
2023-05-19T01:08:29.313Z,100825.28
2023-05-19T01:10:56.686Z,100827.25
2023-05-19T01:13:23.611Z,100822.66
2023-05-19T01:16:03.950Z,100833.78
2023-05-19T01:18:39.850Z,100822.47
2023-05-19T01:21:12.535Z,100819.22
2023-05-19T01:24:09.215Z,100815.41
2023-05-19T01:26:50.808Z,100825.13
2023-05-19T01:30:04.964Z,100824.78
2023-05-19T01:32:33.726Z,100817.59
2023-05-19T01:35:01.346Z,100816.88
2023-05-19T01:37:29.033Z,100824.41
2023-05-19T01:39:56.951Z,100820.16
2023-05-19T01:42:23.730Z,100828.72
2023-05-19T01:44:51.337Z,100826.38
2023-05-19T01:47:18.437Z,100821.38
2023-05-19T01:49:44.997Z,100833.44
2023-05-19T01:52:11.666Z,100828.66
2023-05-19T01:54:38.210Z,100825.38
2023-05-19T01:57:32.263Z,100832.78
2023-05-19T02:00:10.476Z,100823.97
2023-05-19T02:02:56.174Z,100823.47
2023-05-19T02:05:31.012Z,100819.50
2023-05-19T02:08:08.157Z,100822.06
2023-05-19T02:10:36.482Z,100812.75
2023-05-19T02:13:05.391Z,100819.13
2023-05-19T02:15:39.367Z,100816.22
2023-05-19T02:18:06.394Z,100819.81
2023-05-19T02:20:33.332Z,100813.75
2023-05-19T02:23:00.331Z,100814.88
2023-05-19T02:25:27.261Z,100813.88
2023-05-19T02:27:54.672Z,100817.38
2023-05-19T02:30:21.318Z,100814.28
2023-05-19T02:32:47.932Z,100815.91
2023-05-19T02:35:14.643Z,100812.50
2023-05-19T02:37:41.429Z,100807.09
2023-05-19T02:40:08.524Z,100809.03
2023-05-19T02:42:35.012Z,100816.53
2023-05-19T02:45:01.653Z,100818.06
2023-05-19T02:47:28.279Z,100811.88
2023-05-19T02:49:54.791Z,100813.75
2023-05-19T02:52:21.286Z,100817.00
2023-05-19T02:54:47.791Z,100803.59
2023-05-19T02:57:14.294Z,100809.78
2023-05-19T02:59:41.095Z,100805.19
2023-05-19T03:02:07.814Z,100806.88
2023-05-19T03:04:41.503Z,100801.63
2023-05-19T03:07:09.981Z,100801.13
2023-05-19T03:09:39.692Z,100799.19
2023-05-19T03:12:07.577Z,100794.41
2023-05-19T03:14:40.321Z,100794.53
2023-05-19T03:17:10.307Z,100789.09
2023-05-19T03:19:36.807Z,100787.66
2023-05-19T03:22:03.470Z,100785.94
2023-05-19T03:24:29.928Z,100783.78
2023-05-19T03:26:56.427Z,100792.13
2023-05-19T03:29:22.848Z,100798.69
2023-05-19T03:31:49.345Z,100796.97
2023-05-19T03:34:16.020Z,100802.16
2023-05-19T03:36:43.078Z,100811.59
2023-05-19T03:39:09.634Z,100812.94
2023-05-19T03:41:36.101Z,100803.66
2023-05-19T03:44:02.577Z,100802.78
2023-05-19T03:46:29.167Z,100805.94
2023-05-19T03:48:56.128Z,100805.19
2023-05-19T03:51:22.548Z,100809.09
2023-05-19T03:53:48.995Z,100820.56
2023-05-19T03:56:16.838Z,100811.91
2023-05-19T03:58:44.501Z,100809.81
2023-05-19T04:01:11.642Z,100805.03
2023-05-19T04:03:38.288Z,100814.50
2023-05-19T04:06:04.856Z,100815.81
2023-05-19T04:08:32.128Z,100819.72
2023-05-19T04:10:58.910Z,100817.69
2023-05-19T04:13:25.456Z,100819.50
2023-05-19T04:15:52.041Z,100814.13
2023-05-19T04:18:18.583Z,100815.81
2023-05-19T04:20:45.031Z,100819.94
2023-05-19T04:23:11.530Z,100814.06
2023-05-19T04:25:38.291Z,100815.44
2023-05-19T04:28:04.832Z,100822.50
2023-05-19T04:30:31.479Z,100825.50
2023-05-19T04:32:59.284Z,100820.44
2023-05-19T04:35:25.969Z,100822.06
2023-05-19T04:37:54.408Z,100824.03
2023-05-19T04:40:23.665Z,100815.69
2023-05-19T04:42:54.140Z,100822.53
2023-05-19T04:45:20.628Z,100816.81
2023-05-19T04:47:48.156Z,100820.25
2023-05-19T04:50:16.422Z,100819.94
2023-05-19T04:52:45.443Z,100809.59
2023-05-19T04:55:13.162Z,100804.22
2023-05-19T04:57:40.033Z,100809.09
2023-05-19T05:00:09.074Z,100803.03
2023-05-19T05:02:36.124Z,100811.38
2023-05-19T05:05:02.714Z,100815.78
2023-05-19T05:07:31.613Z,100813.81
2023-05-19T05:09:58.740Z,100811.69
2023-05-19T05:12:25.645Z,100805.81
2023-05-19T05:14:52.302Z,100805.94
2023-05-19T05:17:19.173Z,100798.72
2023-05-19T05:19:45.941Z,100803.59
2023-05-19T05:22:12.851Z,100799.66
2023-05-19T05:24:39.592Z,100804.97
2023-05-19T05:27:08.145Z,100805.63
2023-05-19T05:29:34.729Z,100812.19
2023-05-19T05:32:01.330Z,100810.31
2023-05-19T05:34:28.017Z,100806.34
2023-05-19T05:36:54.800Z,100815.50
2023-05-19T05:39:21.218Z,100815.97
2023-05-19T05:41:47.780Z,100806.25
2023-05-19T05:44:14.256Z,100807.28
2023-05-19T05:46:40.939Z,100816.75
2023-05-19T05:49:07.717Z,100812.78
2023-05-19T05:51:34.622Z,100820.72
2023-05-19T05:54:02.106Z,100822.47
2023-05-19T05:56:28.941Z,100813.69
2023-05-19T05:58:56.789Z,100819.38
2023-05-19T06:01:23.955Z,100824.50
2023-05-19T06:03:50.976Z,100821.41
2023-05-19T06:06:17.532Z,100827.16
2023-05-19T06:08:44.020Z,100827.03
2023-05-19T06:11:10.694Z,100817.16
2023-05-19T06:13:38.078Z,100822.47
2023-05-19T06:16:06.150Z,100819.31
2023-05-19T06:18:32.721Z,100822.63
2023-05-19T06:20:59.258Z,100825.81
2023-05-19T06:23:26.845Z,100820.22
2023-05-19T06:25:53.371Z,100815.34
2023-05-19T06:28:19.849Z,100813.56
2023-05-19T06:30:46.460Z,100823.16
2023-05-19T06:33:13.030Z,100818.72
2023-05-19T06:35:39.530Z,100809.69
2023-05-19T06:38:06.101Z,100809.75
2023-05-19T06:40:33.296Z,100811.59
2023-05-19T06:42:59.961Z,100807.13
2023-05-19T06:45:26.587Z,100802.41
2023-05-19T06:47:54.124Z,100800.81
2023-05-19T06:50:20.998Z,100806.66
2023-05-19T06:52:47.463Z,100805.47
2023-05-19T06:55:13.902Z,100815.38
2023-05-19T06:57:40.493Z,100809.50
2023-05-19T07:00:11.454Z,100799.78
2023-05-19T07:02:38.948Z,100804.28
2023-05-19T07:05:06.650Z,100806.41
2023-05-19T07:07:33.178Z,100800.22
2023-05-19T07:09:59.719Z,100798.63
2023-05-19T07:12:26.645Z,100794.09
2023-05-19T07:14:53.596Z,100801.19
2023-05-19T07:17:20.691Z,100800.41
2023-05-19T07:19:47.135Z,100815.50
2023-05-19T07:22:13.690Z,100811.47
2023-05-19T07:24:40.758Z,100801.47
2023-05-19T07:27:07.369Z,100800.19
2023-05-19T07:29:34.490Z,100793.78
2023-05-19T07:32:01.128Z,100793.38
2023-05-19T07:34:27.556Z,100806.66
2023-05-19T07:36:54.267Z,100796.28
2023-05-19T07:39:21.207Z,100799.59
2023-05-19T07:41:52.728Z,100799.69
2023-05-19T07:44:19.353Z,100806.78
2023-05-19T07:46:46.035Z,100803.47
2023-05-19T07:49:12.483Z,100804.75
2023-05-19T07:51:38.942Z,100808.69
2023-05-19T07:54:05.464Z,100799.69
2023-05-19T07:56:31.945Z,100791.28
2023-05-19T07:58:58.411Z,100787.78
2023-05-19T08:01:24.969Z,100785.59
2023-05-19T08:03:51.632Z,100789.53
2023-05-19T08:06:18.414Z,100784.09
2023-05-19T08:08:44.913Z,100788.22
2023-05-19T08:11:11.983Z,100777.06
2023-05-19T08:13:38.706Z,100791.97
2023-05-19T08:16:05.703Z,100800.69
2023-05-19T08:18:32.264Z,100787.75
2023-05-19T08:20:58.834Z,100781.72
2023-05-19T08:23:25.425Z,100791.53
2023-05-19T08:25:52.295Z,100788.16
2023-05-19T08:28:18.808Z,100784.88
2023-05-19T08:30:45.287Z,100789.97
2023-05-19T08:33:12.008Z,100798.09
2023-05-19T08:35:38.557Z,100793.66
2023-05-19T08:38:05.111Z,100792.13
2023-05-19T08:40:33.734Z,100787.28
2023-05-19T08:43:00.610Z,100780.22
2023-05-19T08:45:27.415Z,100783.75
2023-05-19T08:47:54.275Z,100777.47
2023-05-19T08:50:30.707Z,100779.81
2023-05-19T08:53:31.829Z,100782.97
2023-05-19T08:56:10.431Z,100773.06
2023-05-19T08:58:39.718Z,100779.19
2023-05-19T09:01:07.363Z,100777.75
2023-05-19T09:03:41.020Z,100781.97
2023-05-19T09:06:17.108Z,100778.53
2023-05-19T09:08:44.338Z,100782.41
2023-05-19T09:11:11.435Z,100780.19
2023-05-19T09:13:38.880Z,100776.56
2023-05-19T09:16:06.541Z,100764.72
2023-05-19T09:18:33.140Z,100773.16
2023-05-19T09:21:02.269Z,100767.50
2023-05-19T09:23:30.706Z,100764.63
2023-05-19T09:25:57.608Z,100755.22
2023-05-19T09:28:32.188Z,100745.53
2023-05-19T09:31:09.408Z,100747.06
2023-05-19T09:33:42.904Z,100747.06
2023-05-19T09:36:11.605Z,100755.31
2023-05-19T09:38:39.290Z,100758.53
2023-05-19T09:41:07.475Z,100766.88
2023-05-19T09:43:35.116Z,100756.50
2023-05-19T09:46:09.613Z,100746.69
2023-05-19T09:48:37.807Z,100745.09
2023-05-19T09:51:07.582Z,100736.50
2023-05-19T09:53:34.294Z,100741.88
2023-05-19T09:56:02.063Z,100736.97
2023-05-19T09:58:32.051Z,100741.19
2023-05-19T10:00:58.590Z,100738.91
2023-05-19T10:03:25.580Z,100734.22
2023-05-19T10:05:53.565Z,100737.25
2023-05-19T10:08:20.320Z,100727.16
2023-05-19T10:10:47.758Z,100730.34
2023-05-19T10:13:14.763Z,100729.22
2023-05-19T10:15:57.019Z,100723.88
2023-05-19T10:18:26.219Z,100725.34
2023-05-19T10:20:52.861Z,100727.28
2023-05-19T10:23:19.395Z,100726.38
2023-05-19T10:25:46.241Z,100727.34
2023-05-19T10:28:15.153Z,100740.34
2023-05-19T10:30:44.650Z,100713.69
2023-05-19T10:33:14.789Z,100715.28
2023-05-19T10:36:08.344Z,100710.78
2023-05-19T10:38:43.165Z,100711.69
2023-05-19T10:41:35.768Z,100720.28
2023-05-19T10:44:30.827Z,100718.44
2023-05-19T10:46:57.408Z,100713.28
2023-05-19T10:49:24.182Z,100711.53
2023-05-19T10:51:57.604Z,100699.66
2023-05-19T10:54:46.428Z,100711.91
2023-05-19T10:57:19.829Z,100712.56
2023-05-19T10:59:47.063Z,100700.31
2023-05-19T11:02:43.765Z,100712.75
2023-05-19T11:05:16.534Z,100705.78
2023-05-19T11:07:44.444Z,100694.44
2023-05-19T11:10:11.581Z,100715.22
2023-05-19T11:12:43.244Z,100711.84
2023-05-19T11:15:15.066Z,100714.66
2023-05-19T11:17:42.745Z,100700.16
2023-05-19T11:20:12.631Z,100712.41
2023-05-19T11:22:39.898Z,100725.28
2023-05-19T11:25:07.694Z,100708.25
2023-05-19T11:27:38.213Z,100699.88
2023-05-19T11:30:09.172Z,100699.16
2023-05-19T11:32:39.073Z,100692.84
2023-05-19T11:35:06.854Z,100682.53
2023-05-19T11:37:34.633Z,100694.56
2023-05-19T11:40:08.273Z,100685.38
2023-05-19T11:42:36.182Z,100684.59
2023-05-19T11:45:04.172Z,100689.16
2023-05-19T11:47:38.795Z,100699.84
2023-05-19T11:50:13.859Z,100703.53
2023-05-19T11:52:44.778Z,100695.78
2023-05-19T11:55:15.934Z,100692.84
2023-05-19T11:58:02.893Z,100680.13
2023-05-19T12:00:34.901Z,100690.34
2023-05-19T12:03:01.810Z,100690.94
2023-05-19T12:05:29.275Z,100690.81
2023-05-19T12:07:55.899Z,100680.69
2023-05-19T12:10:30.390Z,100687.78
2023-05-19T12:12:58.387Z,100691.34
2023-05-19T12:15:25.622Z,100695.50
2023-05-19T12:17:57.346Z,100697.03
2023-05-19T12:20:24.509Z,100689.38
2023-05-19T12:22:51.437Z,100686.13
2023-05-19T12:25:18.351Z,100685.28
2023-05-19T12:27:45.334Z,100686.16
2023-05-19T12:30:15.265Z,100686.91
2023-05-19T12:32:42.780Z,100685.03
2023-05-19T12:35:10.049Z,100678.88
2023-05-19T12:37:37.275Z,100671.75
2023-05-19T12:40:04.375Z,100681.19
2023-05-19T12:42:31.433Z,100683.25
2023-05-19T12:45:04.593Z,100685.91
2023-05-19T12:47:35.302Z,100688.00
2023-05-19T12:50:08.076Z,100674.34
2023-05-19T12:52:41.294Z,100677.63
2023-05-19T12:55:09.138Z,100672.34
2023-05-19T12:57:40.491Z,100676.44
2023-05-19T13:00:25.883Z,100667.94
2023-05-19T13:03:05.229Z,100666.66
2023-05-19T13:05:33.792Z,100673.13
2023-05-19T13:08:02.276Z,100663.66
2023-05-19T13:10:29.649Z,100672.69
2023-05-19T13:12:57.284Z,100658.56
2023-05-19T13:15:26.301Z,100650.97
2023-05-19T13:17:54.737Z,100662.63
2023-05-19T13:20:21.978Z,100652.97
2023-05-19T13:22:48.862Z,100663.47
2023-05-19T13:25:15.829Z,100670.78
2023-05-19T13:27:42.867Z,100668.34
2023-05-19T13:30:09.721Z,100665.53
2023-05-19T13:32:36.469Z,100662.91
2023-05-19T13:35:03.164Z,100657.19
2023-05-19T13:37:29.882Z,100655.88
2023-05-19T13:39:58.523Z,100668.72
2023-05-19T13:42:25.082Z,100657.13
2023-05-19T13:44:56.215Z,100661.34
2023-05-19T13:47:25.739Z,100660.91
2023-05-19T13:49:52.843Z,100656.78
2023-05-19T13:52:20.828Z,100659.31
2023-05-19T13:54:48.040Z,100651.78
2023-05-19T13:57:15.313Z,100652.16
2023-05-19T13:59:53.323Z,100651.38
2023-05-19T14:02:27.164Z,100650.56
2023-05-19T14:04:54.280Z,100650.94
2023-05-19T14:07:21.295Z,100651.28
2023-05-19T14:09:48.306Z,100647.25
2023-05-19T14:12:15.408Z,100644.13
2023-05-19T14:14:41.982Z,100654.59
2023-05-19T14:17:08.627Z,100652.13
2023-05-19T14:19:35.118Z,100638.72
2023-05-19T14:22:01.580Z,100651.16
2023-05-19T14:24:28.129Z,100648.84
2023-05-19T14:26:54.610Z,100657.38
2023-05-19T14:29:21.131Z,100650.44
2023-05-19T14:31:47.644Z,100656.50
2023-05-19T14:34:17.821Z,100661.03
2023-05-19T14:36:44.655Z,100656.56
2023-05-19T14:39:11.932Z,100644.03
2023-05-19T14:41:38.394Z,100646.88
2023-05-19T14:44:05.380Z,100642.75
2023-05-19T14:46:31.979Z,100644.97
2023-05-19T14:48:58.570Z,100653.19
2023-05-19T14:51:25.024Z,100655.09
2023-05-19T14:53:51.557Z,100649.75
2023-05-19T14:56:18.062Z,100656.97
2023-05-19T14:58:44.479Z,100647.00
2023-05-19T15:01:11.523Z,100654.81
2023-05-19T15:03:38.167Z,100660.81
2023-05-19T15:06:09.479Z,100652.13
2023-05-19T15:08:37.718Z,100666.38
2023-05-19T15:11:04.675Z,100673.25
2023-05-19T15:13:31.108Z,100667.38
2023-05-19T15:16:12.451Z,100679.44
2023-05-19T15:18:42.708Z,100677.09
2023-05-19T15:21:09.308Z,100669.88
2023-05-19T15:23:35.773Z,100670.09
2023-05-19T15:26:02.351Z,100674.16
2023-05-19T15:28:28.847Z,100674.59
2023-05-19T15:30:55.582Z,100676.72
2023-05-19T15:33:22.085Z,100665.72
2023-05-19T15:35:51.627Z,100676.63
2023-05-19T15:38:19.182Z,100674.63
2023-05-19T15:40:46.698Z,100671.44
2023-05-19T15:43:13.424Z,100677.91
2023-05-19T15:45:39.894Z,100678.97
2023-05-19T15:48:06.661Z,100675.56
2023-05-19T15:50:33.397Z,100670.44
2023-05-19T15:52:59.940Z,100678.78
2023-05-19T15:55:26.602Z,100681.16
2023-05-19T15:57:53.117Z,100670.41
2023-05-19T16:00:19.581Z,100670.41
2023-05-19T16:02:46.151Z,100681.06
2023-05-19T16:05:12.706Z,100687.72
2023-05-19T16:07:39.096Z,100690.09
2023-05-19T16:10:05.910Z,100679.34
2023-05-19T16:12:32.402Z,100693.63
2023-05-19T16:14:58.946Z,100689.56
2023-05-19T16:17:26.033Z,100692.38
2023-05-19T16:19:52.996Z,100698.53
2023-05-19T16:22:19.552Z,100693.66
2023-05-19T16:24:46.357Z,100698.28
2023-05-19T16:27:12.778Z,100704.41
2023-05-19T16:29:39.532Z,100711.81
2023-05-19T16:32:06.266Z,100697.31
2023-05-19T16:34:32.758Z,100696.59
2023-05-19T16:36:59.222Z,100695.22
2023-05-19T16:39:25.692Z,100691.97
2023-05-19T16:41:53.130Z,100698.09
2023-05-19T16:44:19.792Z,100697.84
2023-05-19T16:46:46.329Z,100703.25
2023-05-19T16:49:12.933Z,100712.66
2023-05-19T16:51:39.351Z,100709.94
2023-05-19T16:54:05.843Z,100713.63
2023-05-19T16:56:32.491Z,100705.59
2023-05-19T16:58:59.048Z,100711.09
2023-05-19T17:01:25.637Z,100713.91
2023-05-19T17:03:52.295Z,100690.53
2023-05-19T17:06:18.818Z,100695.22
2023-05-19T17:08:45.426Z,100691.00
2023-05-19T17:11:13.394Z,100699.72
2023-05-19T17:13:41.857Z,100689.28
2023-05-19T17:16:08.483Z,100683.16
2023-05-19T17:18:34.916Z,100688.47
2023-05-19T17:21:03.672Z,100684.91
2023-05-19T17:23:30.371Z,100677.09
2023-05-19T17:25:56.840Z,100689.84
2023-05-19T17:28:23.498Z,100690.22
2023-05-19T17:30:49.952Z,100686.44
2023-05-19T17:33:16.526Z,100693.69
2023-05-19T17:35:43.206Z,100688.94
2023-05-19T17:38:09.662Z,100692.06
2023-05-19T17:40:37.048Z,100696.94
2023-05-19T17:43:03.730Z,100702.66
2023-05-19T17:45:30.504Z,100703.00
2023-05-19T17:47:56.997Z,100704.72
2023-05-19T17:50:23.543Z,100695.59
2023-05-19T17:52:50.783Z,100705.75
2023-05-19T17:55:18.192Z,100709.44
2023-05-19T17:57:46.232Z,100714.25
2023-05-19T18:00:13.201Z,100705.78
2023-05-19T18:02:40.183Z,100710.88
2023-05-19T18:05:07.297Z,100702.44
2023-05-19T18:07:38.691Z,100698.84
2023-05-19T18:10:06.096Z,100703.09
2023-05-19T18:12:32.559Z,100704.56
2023-05-19T18:14:59.274Z,100700.03
2023-05-19T18:17:25.902Z,100701.19
2023-05-19T18:19:52.446Z,100692.06
2023-05-19T18:22:18.964Z,100694.88
2023-05-19T18:24:45.562Z,100710.59
2023-05-19T18:27:12.097Z,100708.00
2023-05-19T18:29:38.584Z,100700.03
2023-05-19T18:32:05.439Z,100702.28
2023-05-19T18:34:32.098Z,100693.16
2023-05-19T18:36:58.629Z,100704.91
2023-05-19T18:39:26.559Z,100702.75
2023-05-19T18:41:54.628Z,100695.50
2023-05-19T18:44:21.072Z,100699.19
2023-05-19T18:46:47.661Z,100699.75
2023-05-19T18:49:14.114Z,100705.44
2023-05-19T18:51:42.017Z,100710.69
2023-05-19T18:54:08.566Z,100701.00
2023-05-19T18:56:35.432Z,100710.31
2023-05-19T18:59:01.939Z,100698.94
2023-05-19T19:01:28.617Z,100707.50
2023-05-19T19:03:55.197Z,100714.94
2023-05-19T19:06:23.009Z,100710.59
2023-05-19T19:08:49.811Z,100712.94
2023-05-19T19:11:16.483Z,100715.06
2023-05-19T19:13:43.695Z,100712.25
2023-05-19T19:16:10.659Z,100709.00
2023-05-19T19:18:37.215Z,100723.56
2023-05-19T19:21:05.570Z,100724.09
2023-05-19T19:23:32.627Z,100719.75
2023-05-19T19:25:59.171Z,100715.78
2023-05-19T19:28:26.151Z,100723.38
2023-05-19T19:30:52.720Z,100725.50
2023-05-19T19:33:19.284Z,100722.78
2023-05-19T19:35:46.965Z,100720.91
2023-05-19T19:38:13.774Z,100723.69
2023-05-19T19:40:40.323Z,100733.63
2023-05-19T19:43:06.900Z,100722.78
2023-05-19T19:45:34.855Z,100728.38
2023-05-19T19:48:01.767Z,100720.34
2023-05-19T19:50:28.462Z,100719.53
2023-05-19T19:52:55.089Z,100726.06
2023-05-19T19:55:21.635Z,100720.47
2023-05-19T19:57:49.584Z,100723.97
2023-05-19T20:00:16.584Z,100724.47
2023-05-19T20:02:59.535Z,100724.78
2023-05-19T20:05:29.588Z,100725.59
2023-05-19T20:07:56.083Z,100724.19
2023-05-19T20:10:22.617Z,100719.09
2023-05-19T20:12:50.462Z,100727.19
2023-05-19T20:15:17.110Z,100729.78
2023-05-19T20:17:43.595Z,100732.41
2023-05-19T20:20:11.750Z,100733.84
2023-05-19T20:22:38.965Z,100728.75
2023-05-19T20:25:06.011Z,100720.59
2023-05-19T20:27:32.815Z,100726.66
2023-05-19T20:29:59.439Z,100721.28
2023-05-19T20:32:26.105Z,100727.94
2023-05-19T20:34:52.717Z,100733.03
2023-05-19T20:37:19.198Z,100718.69
2023-05-19T20:39:45.651Z,100724.53
2023-05-19T20:42:12.310Z,100726.63
2023-05-19T20:44:38.814Z,100729.91
2023-05-19T20:47:08.054Z,100730.38
2023-05-19T20:49:34.901Z,100735.56
2023-05-19T20:52:01.548Z,100734.06
2023-05-19T20:54:28.234Z,100739.78
2023-05-19T20:56:54.845Z,100735.25
2023-05-19T20:59:21.497Z,100734.00
2023-05-19T21:01:48.156Z,100731.09
2023-05-19T21:04:14.733Z,100732.94
2023-05-19T21:06:41.335Z,100731.28
2023-05-19T21:09:07.950Z,100722.91
2023-05-19T21:11:34.480Z,100724.28
2023-05-19T21:14:03.921Z,100719.13
2023-05-19T21:16:31.567Z,100721.38
2023-05-19T21:18:58.299Z,100718.13
2023-05-19T21:21:25.240Z,100726.97
2023-05-19T21:23:51.913Z,100719.63
2023-05-19T21:26:18.391Z,100720.34
2023-05-19T21:28:44.876Z,100726.06
2023-05-19T21:31:11.648Z,100736.69
2023-05-19T21:33:38.140Z,100728.28
2023-05-19T21:36:04.888Z,100730.72
2023-05-19T21:38:31.359Z,100728.28
2023-05-19T21:40:57.909Z,100731.09
2023-05-19T21:43:24.369Z,100726.16
2023-05-19T21:45:50.964Z,100729.91
2023-05-19T21:48:17.681Z,100734.34
2023-05-19T21:50:44.327Z,100723.16
2023-05-19T21:53:10.792Z,100722.81
2023-05-19T21:55:37.479Z,100724.31
2023-05-19T21:58:04.269Z,100725.72
2023-05-19T22:00:30.709Z,100723.25
2023-05-19T22:02:57.632Z,100727.13
2023-05-19T22:05:24.228Z,100717.56
2023-05-19T22:07:50.786Z,100733.88
2023-05-19T22:10:17.462Z,100720.25
2023-05-19T22:12:44.009Z,100719.69
2023-05-19T22:15:11.454Z,100716.38
2023-05-19T22:17:38.252Z,100719.09
2023-05-19T22:20:05.877Z,100718.03
2023-05-19T22:22:32.769Z,100728.19
2023-05-19T22:24:59.362Z,100715.22
2023-05-19T22:27:25.789Z,100727.47
2023-05-19T22:29:52.313Z,100716.53
2023-05-19T22:32:19.556Z,100722.47
2023-05-19T22:34:46.362Z,100723.63
2023-05-19T22:37:12.983Z,100721.88
2023-05-19T22:39:39.640Z,100723.28
2023-05-19T22:42:06.134Z,100718.50
2023-05-19T22:44:32.782Z,100715.22
2023-05-19T22:46:59.478Z,100711.97
2023-05-19T22:49:27.393Z,100717.94
2023-05-19T22:51:53.893Z,100717.59
2023-05-19T22:54:20.644Z,100707.91
2023-05-19T22:56:48.896Z,100709.88
2023-05-19T22:59:17.939Z,100707.69
2023-05-19T23:01:46.521Z,100705.25
2023-05-19T23:04:13.925Z,100705.72
2023-05-19T23:06:40.592Z,100698.72
2023-05-19T23:09:07.069Z,100693.81
2023-05-19T23:11:34.250Z,100700.13
2023-05-19T23:14:01.060Z,100696.72
2023-05-19T23:16:27.827Z,100697.44
2023-05-19T23:18:54.638Z,100700.13
2023-05-19T23:21:21.460Z,100710.94
2023-05-19T23:23:48.191Z,100718.03
2023-05-19T23:26:14.984Z,100710.50
2023-05-19T23:28:42.510Z,100710.47
2023-05-19T23:31:09.586Z,100706.78
2023-05-19T23:33:36.431Z,100716.91
2023-05-19T23:36:10.276Z,100711.56
2023-05-19T23:38:37.278Z,100710.81
2023-05-19T23:41:03.890Z,100705.34
2023-05-19T23:43:32.254Z,100712.72
2023-05-19T23:45:59.145Z,100710.81
2023-05-19T23:48:26.592Z,100707.56
2023-05-19T23:50:53.096Z,100698.59
2023-05-19T23:53:19.855Z,100696.41
2023-05-19T23:55:47.353Z,100703.75
2023-05-19T23:58:14.664Z,100699.66
